createdAt,value
2023-05-06T00:00:20.012Z,24.73
2023-05-06T00:02:48.525Z,23.23
2023-05-06T00:05:18.524Z,24.73
2023-05-06T00:07:47.080Z,25.57
2023-05-06T00:10:16.147Z,25.53
2023-05-06T00:12:44.605Z,26.63
2023-05-06T00:15:13.300Z,23.47
2023-05-06T00:17:43.172Z,25.77
2023-05-06T00:20:11.905Z,25.13
2023-05-06T00:22:40.327Z,27.77
2023-05-06T00:25:09.154Z,24.30
2023-05-06T00:27:37.693Z,28.33
2023-05-06T00:30:06.440Z,26.40
2023-05-06T00:32:34.990Z,26.67
2023-05-06T00:35:04.774Z,25.33
2023-05-06T00:37:33.167Z,26.47
2023-05-06T00:40:01.578Z,27.63
2023-05-06T00:42:30.114Z,27.43
2023-05-06T00:44:58.651Z,28.67
2023-05-06T00:47:27.208Z,25.50
2023-05-06T00:49:55.722Z,27.10
2023-05-06T00:52:26.297Z,26.13
2023-05-06T00:54:54.808Z,25.37
2023-05-06T00:57:23.586Z,27.57
2023-05-06T00:59:51.962Z,26.40
2023-05-06T01:02:20.453Z,29.43
2023-05-06T01:04:48.979Z,28.60
2023-05-06T01:07:19.374Z,24.50
2023-05-06T01:09:51.297Z,31.77
2023-05-06T01:12:23.134Z,26.90
2023-05-06T01:14:51.998Z,27.33
2023-05-06T01:17:20.502Z,24.97
2023-05-06T01:19:50.250Z,27.60
2023-05-06T01:22:18.717Z,26.33
2023-05-06T01:24:48.499Z,26.57
2023-05-06T01:27:18.298Z,25.07
2023-05-06T01:29:47.098Z,24.93
2023-05-06T01:32:20.466Z,31.03
2023-05-06T01:34:51.917Z,25.73
2023-05-06T01:37:22.097Z,27.33
2023-05-06T01:39:51.848Z,24.20
2023-05-06T01:42:20.333Z,24.37
2023-05-06T01:44:48.883Z,25.80
2023-05-06T01:47:17.314Z,26.90
2023-05-06T01:49:45.982Z,26.50
2023-05-06T01:52:14.386Z,25.03
2023-05-06T01:54:43.236Z,28.27
2023-05-06T01:57:13.238Z,25.60
2023-05-06T01:59:41.737Z,26.03
2023-05-06T02:02:10.388Z,26.47
2023-05-06T02:04:38.793Z,27.13
2023-05-06T02:07:07.291Z,26.33
2023-05-06T02:09:35.962Z,28.93
2023-05-06T02:12:04.418Z,27.03
2023-05-06T02:14:34.159Z,26.83
2023-05-06T02:17:04.902Z,28.73
2023-05-06T02:19:33.356Z,25.57
2023-05-06T02:22:01.900Z,25.33
2023-05-06T02:24:30.360Z,27.17
2023-05-06T02:26:58.806Z,25.90
2023-05-06T02:29:27.313Z,28.93
2023-05-06T02:31:57.286Z,27.50
2023-05-06T02:34:26.103Z,26.83
2023-05-06T02:36:54.720Z,27.27
2023-05-06T02:39:23.196Z,28.13
2023-05-06T02:41:51.870Z,26.83
2023-05-06T02:44:20.290Z,26.33
2023-05-06T02:46:48.658Z,28.17
2023-05-06T02:49:18.417Z,25.70
2023-05-06T02:51:47.211Z,25.37
2023-05-06T02:54:15.791Z,27.03
2023-05-06T02:56:46.392Z,29.47
2023-05-06T02:59:15.294Z,27.70
2023-05-06T03:01:43.712Z,28.13
2023-05-06T03:04:12.218Z,27.30
2023-05-06T03:06:42.016Z,28.30
2023-05-06T03:09:10.589Z,29.00
2023-05-06T03:11:39.028Z,25.67
2023-05-06T03:14:07.687Z,26.03
2023-05-06T03:16:36.487Z,26.90
2023-05-06T03:19:04.885Z,23.47
2023-05-06T03:21:33.447Z,27.70
2023-05-06T03:24:03.527Z,27.27
2023-05-06T03:26:32.010Z,26.23
2023-05-06T03:29:00.485Z,27.50
2023-05-06T03:31:29.101Z,27.53
2023-05-06T03:33:57.849Z,24.87
2023-05-06T03:36:27.205Z,26.47
2023-05-06T03:38:55.783Z,27.87
2023-05-06T03:41:26.099Z,28.27
2023-05-06T03:43:55.839Z,26.87
2023-05-06T03:46:24.366Z,30.60
2023-05-06T03:48:52.795Z,27.70
2023-05-06T03:51:21.455Z,27.00
2023-05-06T03:53:50.596Z,28.23
2023-05-06T03:56:21.961Z,27.97
2023-05-06T03:58:51.786Z,26.40
2023-05-06T04:01:20.457Z,30.03
2023-05-06T04:03:49.036Z,35.77
2023-05-06T04:06:17.602Z,29.90
2023-05-06T04:08:45.957Z,29.53
2023-05-06T04:11:14.730Z,28.20
2023-05-06T04:13:43.281Z,27.83
2023-05-06T04:16:13.145Z,28.13
2023-05-06T04:18:41.601Z,29.17
2023-05-06T04:21:12.015Z,28.47
2023-05-06T04:23:41.613Z,28.50
2023-05-06T04:26:10.117Z,28.23
2023-05-06T04:28:38.552Z,27.20
2023-05-06T04:31:08.609Z,28.83
2023-05-06T04:33:38.772Z,30.90
2023-05-06T04:36:07.650Z,29.80
2023-05-06T04:38:37.507Z,29.70
2023-05-06T04:41:06.308Z,31.33
2023-05-06T04:43:34.929Z,32.17
2023-05-06T04:46:03.414Z,27.47
2023-05-06T04:48:32.122Z,31.07
2023-05-06T04:51:01.969Z,35.40
2023-05-06T04:53:30.346Z,32.07
2023-05-06T04:55:58.733Z,30.83
2023-05-06T04:58:27.165Z,31.43
2023-05-06T05:00:55.633Z,32.80
2023-05-06T05:03:24.530Z,29.43
2023-05-06T05:05:53.091Z,33.93
2023-05-06T05:08:22.996Z,29.43
2023-05-06T05:10:51.597Z,27.50
2023-05-06T05:13:20.159Z,32.20
2023-05-06T05:15:48.876Z,37.87
2023-05-06T05:18:17.299Z,28.27
2023-05-06T05:20:45.782Z,30.80
2023-05-06T05:23:14.484Z,31.63
2023-05-06T05:25:44.312Z,28.93
2023-05-06T05:28:12.797Z,31.80
2023-05-06T05:30:41.165Z,35.47
2023-05-06T05:33:09.752Z,37.30
2023-05-06T05:35:38.377Z,35.00
2023-05-06T05:38:06.833Z,35.87
2023-05-06T05:40:37.667Z,33.40
2023-05-06T05:43:07.472Z,32.40
2023-05-06T05:45:36.241Z,31.10
2023-05-06T05:48:04.725Z,37.37
2023-05-06T05:50:33.273Z,32.50
2023-05-06T05:53:01.652Z,29.87
2023-05-06T05:55:31.078Z,32.33
2023-05-06T05:57:59.570Z,37.17
2023-05-06T06:00:29.502Z,33.77
2023-05-06T06:02:58.143Z,37.30
2023-05-06T06:05:26.655Z,36.57
2023-05-06T06:07:55.254Z,38.93
2023-05-06T06:10:23.769Z,40.70
2023-05-06T06:12:52.254Z,40.00
2023-05-06T06:15:20.689Z,42.13
2023-05-06T06:17:50.489Z,39.00
2023-05-06T06:20:19.093Z,42.80
2023-05-06T06:22:47.600Z,43.37
2023-05-06T06:25:16.130Z,39.10
2023-05-06T06:27:44.660Z,41.07
2023-05-06T06:30:13.310Z,47.87
2023-05-06T06:32:47.643Z,45.23
2023-05-06T06:35:17.555Z,43.23
2023-05-06T06:37:45.883Z,44.83
2023-05-06T06:40:15.032Z,46.73
2023-05-06T06:42:43.406Z,40.53
2023-05-06T06:45:12.370Z,41.63
2023-05-06T06:47:40.971Z,45.17
2023-05-06T06:50:10.081Z,52.40
2023-05-06T06:52:40.120Z,43.83
2023-05-06T06:55:09.269Z,44.93
2023-05-06T06:57:38.615Z,53.77
2023-05-06T07:00:07.297Z,50.40
2023-05-06T07:02:35.906Z,46.87
2023-05-06T07:05:04.580Z,49.30
2023-05-06T07:07:33.128Z,45.70
2023-05-06T07:10:02.934Z,44.50
2023-05-06T07:12:31.386Z,42.17
2023-05-06T07:14:59.864Z,36.30
2023-05-06T07:17:28.248Z,33.97
2023-05-06T07:19:56.682Z,34.53
2023-05-06T07:22:25.270Z,37.73
2023-05-06T07:24:53.874Z,29.90
2023-05-06T07:27:24.117Z,27.50
2023-05-06T07:29:52.618Z,25.00
2023-05-06T07:32:21.078Z,26.33
2023-05-06T07:34:49.516Z,24.93
2023-05-06T07:37:18.112Z,26.73
2023-05-06T07:39:46.720Z,30.13
2023-05-06T07:42:15.183Z,20.47
2023-05-06T07:44:44.981Z,21.07
2023-05-06T07:47:13.440Z,23.10
2023-05-06T07:49:42.123Z,25.73
2023-05-06T07:52:10.519Z,24.47
2023-05-06T07:54:39.122Z,21.07
2023-05-06T07:57:07.537Z,19.07
2023-05-06T07:59:35.966Z,18.40
2023-05-06T08:02:05.850Z,19.37
2023-05-06T08:04:34.359Z,20.53
2023-05-06T08:07:02.852Z,22.33
2023-05-06T08:09:31.275Z,20.10
2023-05-06T08:11:59.769Z,23.97
2023-05-06T08:14:28.306Z,22.23
2023-05-06T08:16:56.876Z,21.00
2023-05-06T08:19:26.854Z,23.63
2023-05-06T08:21:55.535Z,23.97
2023-05-06T08:24:24.014Z,23.57
2023-05-06T08:26:52.494Z,27.73
2023-05-06T08:29:21.315Z,21.60
2023-05-06T08:31:49.880Z,20.33
2023-05-06T08:34:21.192Z,23.23
2023-05-06T08:36:51.406Z,19.50
2023-05-06T08:39:19.875Z,19.87
2023-05-06T08:41:49.186Z,18.77
2023-05-06T08:44:18.032Z,24.63
2023-05-06T08:46:46.702Z,23.13
2023-05-06T08:49:15.155Z,19.00
2023-05-06T08:51:44.594Z,20.70
2023-05-06T08:54:14.544Z,14.63
2023-05-06T08:56:44.376Z,21.50
2023-05-06T08:59:13.876Z,17.23
2023-05-06T09:01:42.427Z,17.40
2023-05-06T09:04:10.871Z,18.53
2023-05-06T09:06:39.227Z,17.37
2023-05-06T09:09:07.615Z,18.70
2023-05-06T09:11:38.948Z,13.10
2023-05-06T09:14:11.643Z,14.97
2023-05-06T09:16:40.294Z,12.57
2023-05-06T09:19:08.811Z,14.37
2023-05-06T09:21:37.437Z,14.80
2023-05-06T09:24:06.260Z,15.77
2023-05-06T09:26:34.875Z,11.00
2023-05-06T09:29:04.836Z,14.00
2023-05-06T09:31:33.406Z,16.60
2023-05-06T09:34:02.092Z,12.83
2023-05-06T09:36:30.873Z,12.00
2023-05-06T09:38:59.222Z,11.73
2023-05-06T09:41:27.677Z,12.83
2023-05-06T09:43:56.448Z,10.90
2023-05-06T09:46:26.794Z,12.50
2023-05-06T09:48:55.632Z,13.57
2023-05-06T09:51:24.064Z,12.20
2023-05-06T09:53:52.465Z,13.43
2023-05-06T09:56:21.474Z,8.97
2023-05-06T09:58:49.900Z,9.00
2023-05-06T10:01:32.841Z,9.27
2023-05-06T10:04:07.964Z,11.03
2023-05-06T10:06:36.881Z,10.10
2023-05-06T10:09:06.305Z,11.33
2023-05-06T10:11:34.912Z,11.70
2023-05-06T10:14:03.873Z,10.00
2023-05-06T10:16:32.524Z,11.20
2023-05-06T10:19:01.019Z,9.13
2023-05-06T10:21:32.392Z,11.73
2023-05-06T10:24:04.001Z,12.10
2023-05-06T10:26:32.566Z,10.13
2023-05-06T10:29:01.250Z,10.33
2023-05-06T10:31:29.754Z,10.27
2023-05-06T10:33:58.200Z,8.60
2023-05-06T10:36:27.814Z,11.60
2023-05-06T10:39:00.168Z,11.43
2023-05-06T10:41:28.938Z,9.40
2023-05-06T10:43:57.802Z,11.23
2023-05-06T10:46:26.713Z,9.63
2023-05-06T10:49:14.087Z,9.97
2023-05-06T10:51:42.576Z,10.43
2023-05-06T10:54:12.478Z,8.17
2023-05-06T10:56:41.203Z,6.77
2023-05-06T10:59:09.853Z,7.77
2023-05-06T11:01:38.535Z,6.80
2023-05-06T11:04:07.938Z,7.83
2023-05-06T11:06:36.624Z,8.50
2023-05-06T11:09:05.630Z,6.83
2023-05-06T11:11:55.013Z,10.13
2023-05-06T11:14:32.701Z,7.53
2023-05-06T11:17:01.558Z,11.43
2023-05-06T11:19:30.340Z,9.03
2023-05-06T11:21:59.070Z,7.23
2023-05-06T11:24:28.361Z,9.47
2023-05-06T11:26:58.420Z,8.13
2023-05-06T11:29:27.000Z,7.63
2023-05-06T11:31:55.459Z,7.83
2023-05-06T11:34:24.847Z,8.83
2023-05-06T11:36:54.991Z,9.77
2023-05-06T11:39:23.436Z,9.07
2023-05-06T11:41:51.847Z,8.93
2023-05-06T11:44:31.412Z,12.03
2023-05-06T11:47:00.328Z,10.87
2023-05-06T11:49:28.710Z,11.33
2023-05-06T11:51:58.108Z,11.43
2023-05-06T11:54:27.580Z,9.17
2023-05-06T11:56:57.323Z,10.30
2023-05-06T11:59:31.118Z,13.33
2023-05-06T12:01:59.965Z,10.70
2023-05-06T12:04:28.721Z,11.13
2023-05-06T12:06:58.460Z,7.80
2023-05-06T12:09:26.949Z,9.47
2023-05-06T12:11:56.220Z,10.33
2023-05-06T12:14:24.517Z,8.67
2023-05-06T12:16:56.062Z,8.20
2023-05-06T12:19:24.606Z,12.17
2023-05-06T12:21:53.045Z,9.40
2023-05-06T12:24:29.367Z,7.33
2023-05-06T12:26:57.857Z,8.80
2023-05-06T12:29:26.380Z,9.53
2023-05-06T12:32:10.347Z,10.30
2023-05-06T12:34:39.198Z,9.23
2023-05-06T12:37:07.870Z,10.23
2023-05-06T12:39:36.657Z,9.27
2023-05-06T12:42:05.055Z,10.47
2023-05-06T12:44:36.813Z,10.30
2023-05-06T12:47:05.671Z,9.30
2023-05-06T12:49:48.691Z,9.40
2023-05-06T12:52:17.274Z,7.53
2023-05-06T12:54:45.918Z,7.37
2023-05-06T12:57:14.346Z,8.90
2023-05-06T12:59:45.862Z,7.93
2023-05-06T13:02:14.521Z,7.20
2023-05-06T13:04:43.109Z,8.87
2023-05-06T13:07:13.079Z,7.97
2023-05-06T13:09:41.631Z,10.77
2023-05-06T13:12:10.156Z,6.63
2023-05-06T13:14:40.299Z,6.97
2023-05-06T13:17:09.250Z,6.80
2023-05-06T13:19:37.754Z,6.10
2023-05-06T13:22:06.295Z,8.23
2023-05-06T13:24:36.520Z,9.43
2023-05-06T13:27:04.928Z,9.90
2023-05-06T13:32:56.259Z,10.33
2023-05-06T13:35:24.578Z,9.53
2023-05-06T13:37:52.918Z,8.53
2023-05-06T13:40:22.778Z,8.27
2023-05-06T13:42:51.189Z,8.50
2023-05-06T13:45:19.618Z,9.97
2023-05-06T13:47:48.019Z,9.73
2023-05-06T13:50:16.578Z,13.17
2023-05-06T13:52:45.290Z,12.17
2023-05-06T13:55:13.745Z,12.90
2023-05-06T13:57:43.491Z,12.93
2023-05-06T14:00:12.762Z,12.40
2023-05-06T14:02:42.024Z,11.80
2023-05-06T14:05:11.043Z,11.00
2023-05-06T14:07:40.618Z,11.70
2023-05-06T14:10:09.793Z,13.30
2023-05-06T14:12:38.242Z,12.67
2023-05-06T14:15:09.114Z,11.70
2023-05-06T14:17:37.748Z,14.23
2023-05-06T14:20:06.691Z,15.27
2023-05-06T14:22:35.025Z,14.17
2023-05-06T14:25:03.515Z,14.53
2023-05-06T14:27:32.102Z,14.03
2023-05-06T14:30:00.539Z,14.17
2023-05-06T14:32:30.501Z,13.13
2023-05-06T14:34:59.057Z,14.27
2023-05-06T14:37:27.762Z,15.40
2023-05-06T14:39:56.092Z,14.03
2023-05-06T14:42:24.507Z,14.33
2023-05-06T14:44:52.941Z,9.00
2023-05-06T14:47:21.426Z,7.33
2023-05-06T14:49:51.245Z,5.67
2023-05-06T14:52:19.630Z,5.87
2023-05-06T14:54:48.207Z,4.97
2023-05-06T14:57:16.574Z,5.77
2023-05-06T14:59:45.093Z,3.70
2023-05-06T15:02:13.501Z,5.47
2023-05-06T15:04:42.218Z,6.27
2023-05-06T15:07:12.078Z,5.57
2023-05-06T15:09:43.806Z,6.73
2023-05-06T15:12:12.334Z,5.40
2023-05-06T15:14:40.755Z,4.63
2023-05-06T15:17:09.178Z,5.10
2023-05-06T15:19:37.908Z,5.03
2023-05-06T15:22:06.875Z,3.93
2023-05-06T15:24:36.858Z,4.47
2023-05-06T15:27:05.299Z,5.80
2023-05-06T15:29:33.760Z,5.37
2023-05-06T15:32:02.245Z,4.63
2023-05-06T15:34:30.710Z,5.70
2023-05-06T15:37:01.615Z,3.20
2023-05-06T15:39:38.736Z,4.63
2023-05-06T15:42:07.275Z,4.17
2023-05-06T15:44:37.582Z,6.23
2023-05-06T15:47:06.321Z,5.83
2023-05-06T15:49:52.126Z,6.37
2023-05-06T15:52:23.237Z,4.83
2023-05-06T15:54:58.775Z,5.60
2023-05-06T15:57:30.282Z,16.67
2023-05-06T15:59:58.868Z,18.60
2023-05-06T16:02:27.789Z,21.47
2023-05-06T16:04:56.953Z,18.47
2023-05-06T16:07:25.563Z,18.23
2023-05-06T16:09:55.394Z,22.73
2023-05-06T16:12:23.736Z,24.10
2023-05-06T16:14:52.259Z,20.20
2023-05-06T16:17:20.617Z,21.60
2023-05-06T16:19:49.080Z,24.73
2023-05-06T16:22:17.565Z,17.93
2023-05-06T16:24:45.920Z,22.10
2023-05-06T16:27:16.340Z,19.30
2023-05-06T16:29:45.055Z,20.77
2023-05-06T16:32:13.725Z,26.63
2023-05-06T16:34:42.143Z,22.17
2023-05-06T16:37:10.785Z,25.30
2023-05-06T16:39:39.429Z,18.20
2023-05-06T16:42:08.178Z,29.07
2023-05-06T16:44:38.144Z,24.73
2023-05-06T16:47:07.401Z,20.60
2023-05-06T16:49:36.319Z,16.70
2023-05-06T16:52:05.174Z,20.27
2023-05-06T16:54:34.214Z,19.90
2023-05-06T16:57:03.532Z,18.00
2023-05-06T16:59:34.040Z,17.47
2023-05-06T17:02:04.798Z,34.33
2023-05-06T17:04:33.338Z,33.23
2023-05-06T17:07:01.785Z,24.83
2023-05-06T17:09:30.158Z,20.17
2023-05-06T17:11:58.623Z,17.47
2023-05-06T17:14:28.010Z,18.30
2023-05-06T17:16:56.687Z,15.37
2023-05-06T17:19:26.932Z,12.50
2023-05-06T17:21:55.460Z,22.80
2023-05-06T17:24:23.985Z,124.03
2023-05-06T17:26:52.553Z,25.10
2023-05-06T17:29:22.314Z,59.67
2023-05-06T17:31:51.014Z,31.80
2023-05-06T17:36:49.863Z,21.50
2023-05-06T17:39:21.730Z,19.50
2023-05-06T17:41:51.076Z,21.73
2023-05-06T17:44:19.540Z,21.87
2023-05-06T17:46:48.305Z,42.33
2023-05-06T17:49:17.091Z,58.00
2023-05-06T17:51:46.377Z,24.40
2023-05-06T17:54:16.313Z,23.00
2023-05-06T17:56:50.243Z,25.53
2023-05-06T17:59:19.567Z,28.57
2023-05-06T18:01:48.224Z,24.97
2023-05-06T18:04:16.932Z,24.90
2023-05-06T18:06:46.538Z,26.37
2023-05-06T18:09:18.012Z,30.37
2023-05-06T18:11:56.959Z,27.67
2023-05-06T18:14:30.442Z,30.73
2023-05-06T18:16:59.853Z,33.60
2023-05-06T18:19:28.621Z,34.10
2023-05-06T18:21:57.194Z,38.50
2023-05-06T18:24:28.035Z,37.43
2023-05-06T18:26:58.426Z,33.57
2023-05-06T18:29:30.662Z,33.83
2023-05-06T18:32:00.601Z,32.67
2023-05-06T18:34:30.354Z,33.27
2023-05-06T18:36:59.514Z,35.57
2023-05-06T18:39:33.530Z,33.63
2023-05-06T18:42:12.142Z,36.77
2023-05-06T18:44:41.155Z,36.77
2023-05-06T18:47:11.186Z,33.73
2023-05-06T18:49:40.306Z,31.97
2023-05-06T18:52:08.862Z,30.23
2023-05-06T18:54:39.868Z,29.67
2023-05-06T18:57:08.491Z,34.07
2023-05-06T18:59:37.611Z,34.07
2023-05-06T19:02:09.886Z,31.67
2023-05-06T19:04:38.977Z,30.87
2023-05-06T19:07:07.557Z,33.63
2023-05-06T19:09:37.213Z,28.53
2023-05-06T19:12:07.186Z,33.40
2023-05-06T19:14:35.870Z,35.33
2023-05-06T19:17:04.919Z,35.43
2023-05-06T19:19:33.496Z,34.03
2023-05-06T19:22:02.320Z,34.10
2023-05-06T19:24:31.770Z,34.43
2023-05-06T19:27:00.416Z,38.30
2023-05-06T19:29:30.393Z,35.87
2023-05-06T19:31:58.854Z,35.90
2023-05-06T19:34:27.251Z,36.33
2023-05-06T19:36:58.492Z,38.53
2023-05-06T19:39:26.965Z,41.07
2023-05-06T19:41:55.760Z,42.50
2023-05-06T19:44:24.266Z,46.10
2023-05-06T19:46:55.494Z,46.27
2023-05-06T19:49:24.087Z,50.03
2023-05-06T19:51:52.437Z,47.10
2023-05-06T19:54:22.385Z,53.77
2023-05-06T19:56:51.562Z,49.30
2023-05-06T19:59:20.268Z,47.93
2023-05-06T20:01:48.982Z,42.87
2023-05-06T20:04:19.499Z,44.60
2023-05-06T20:06:48.384Z,47.70
2023-05-06T20:09:20.157Z,47.10
2023-05-06T20:11:51.906Z,43.70
2023-05-06T20:14:20.340Z,41.87
2023-05-06T20:16:48.875Z,41.17
2023-05-06T20:19:21.331Z,43.97
2023-05-06T20:21:49.818Z,43.83
2023-05-06T20:24:18.832Z,40.90
2023-05-06T20:26:47.365Z,45.37
2023-05-06T20:29:16.231Z,45.10
2023-05-06T20:31:47.121Z,42.03
2023-05-06T20:34:20.840Z,44.90
2023-05-06T20:36:50.928Z,42.97
2023-05-06T20:39:19.404Z,44.43
2023-05-06T20:41:49.750Z,42.70
2023-05-06T20:44:18.352Z,44.80
2023-05-06T20:46:49.351Z,48.47
2023-05-06T20:49:20.152Z,42.10
2023-05-06T20:51:48.865Z,50.27
2023-05-06T20:54:19.323Z,43.30
2023-05-06T20:56:47.831Z,49.60
2023-05-06T20:59:16.409Z,44.63
2023-05-06T21:01:55.035Z,44.13
2023-05-06T21:04:23.976Z,43.20
2023-05-06T21:06:52.760Z,44.43
2023-05-06T21:09:22.500Z,44.60
2023-05-06T21:11:50.884Z,48.23
2023-05-06T21:14:19.281Z,42.17
2023-05-06T21:16:47.836Z,42.63
2023-05-06T21:19:16.235Z,44.63
2023-05-06T21:21:44.768Z,43.17
2023-05-06T21:24:13.251Z,45.00
2023-05-06T21:26:43.022Z,45.40
2023-05-06T21:29:11.502Z,41.37
2023-05-06T21:31:40.062Z,42.13
2023-05-06T21:34:10.565Z,38.43
2023-05-06T21:36:39.062Z,43.97
2023-05-06T21:39:08.214Z,40.83
2023-05-06T21:41:36.650Z,39.50
2023-05-06T21:44:06.698Z,35.13
2023-05-06T21:46:35.976Z,36.67
2023-05-06T21:49:04.531Z,37.20
2023-05-06T21:51:34.481Z,36.57
2023-05-06T21:54:06.297Z,35.13
2023-05-06T21:56:36.217Z,37.03
2023-05-06T21:59:07.950Z,37.70
2023-05-06T22:01:39.803Z,35.10
2023-05-06T22:04:13.342Z,42.43
2023-05-06T22:06:45.476Z,36.23
2023-05-06T22:09:14.772Z,39.00
2023-05-06T22:11:43.382Z,36.43
2023-05-06T22:14:16.028Z,34.63
2023-05-06T22:16:45.765Z,31.53
2023-05-06T22:19:15.513Z,34.47
2023-05-06T22:21:44.546Z,34.73
2023-05-06T22:24:19.870Z,32.03
2023-05-06T22:26:48.865Z,35.50
2023-05-06T22:29:19.004Z,34.53
2023-05-06T22:31:48.342Z,35.27
2023-05-06T22:34:17.388Z,32.73
2023-05-06T22:36:46.496Z,37.93
2023-05-06T22:39:16.002Z,37.40
2023-05-06T22:41:44.979Z,37.90
2023-05-06T22:44:13.883Z,33.17
2023-05-06T22:46:44.019Z,36.03
2023-05-06T22:49:14.016Z,38.30
2023-05-06T22:51:43.453Z,34.90
2023-05-06T22:54:11.986Z,38.80
2023-05-06T22:56:41.394Z,38.80
2023-05-06T22:59:10.425Z,36.47
2023-05-06T23:01:42.270Z,36.10
2023-05-06T23:04:16.547Z,36.60
2023-05-06T23:06:46.739Z,43.23
2023-05-06T23:09:15.719Z,39.37
2023-05-06T23:11:45.094Z,42.30
2023-05-06T23:14:13.990Z,37.03
2023-05-06T23:16:42.795Z,40.63
2023-05-06T23:19:11.705Z,43.17
2023-05-06T23:21:44.098Z,43.57
2023-05-06T23:24:12.504Z,46.37
2023-05-06T23:26:42.214Z,43.97
2023-05-06T23:29:11.629Z,47.10
2023-05-06T23:31:40.917Z,44.20
2023-05-06T23:34:09.493Z,42.47
2023-05-06T23:36:43.449Z,43.17
2023-05-06T23:39:12.522Z,42.67
2023-05-06T23:41:41.944Z,43.37
2023-05-06T23:44:10.836Z,39.43
2023-05-06T23:46:41.734Z,39.97
2023-05-06T23:49:11.019Z,40.60
2023-05-06T23:51:39.800Z,41.23
2023-05-06T23:54:10.441Z,38.43
2023-05-06T23:56:39.025Z,44.70
2023-05-06T23:59:07.653Z,40.70
